createdAt,value
2019-03-16T00:00:00.116Z,6.90
2019-03-16T00:02:29.148Z,7.00
2019-03-16T00:04:58.203Z,7.00
2019-03-16T00:07:32.968Z,7.00
2019-03-16T00:09:57.865Z,7.00
2019-03-16T00:12:27.028Z,6.90
2019-03-16T00:14:56.015Z,6.90
2019-03-16T00:17:25.138Z,6.90
2019-03-16T00:19:54.194Z,6.90
2019-03-16T00:22:23.301Z,7.00
2019-03-16T00:24:52.399Z,6.90
2019-03-16T00:27:21.314Z,6.90
2019-03-16T00:29:50.382Z,6.90
2019-03-16T00:32:19.435Z,6.90
2019-03-16T00:34:48.550Z,6.90
2019-03-16T00:37:17.535Z,6.90
2019-03-16T00:39:46.512Z,6.90
2019-03-16T00:42:16.544Z,6.80
2019-03-16T00:44:46.949Z,6.80
2019-03-16T00:47:16.016Z,6.80
2019-03-16T00:49:50.293Z,6.90
2019-03-16T00:52:19.235Z,6.90
2019-03-16T00:54:48.761Z,6.90
2019-03-16T00:57:18.867Z,6.90
2019-03-16T00:59:48.214Z,6.90
2019-03-16T01:02:26.980Z,6.80
2019-03-16T01:04:49.107Z,6.80
2019-03-16T01:07:18.185Z,6.80
2019-03-16T01:09:47.300Z,6.70
2019-03-16T01:12:17.925Z,6.70
2019-03-16T01:14:46.902Z,6.80
2019-03-16T01:17:15.879Z,6.70
2019-03-16T01:19:45.011Z,6.80
2019-03-16T01:22:14.351Z,6.80
2019-03-16T01:24:45.934Z,6.80
2019-03-16T01:27:18.255Z,6.80
2019-03-16T01:29:49.179Z,6.80
2019-03-16T01:32:18.367Z,6.80
2019-03-16T01:34:47.337Z,6.80
2019-03-16T01:37:16.327Z,6.80
2019-03-16T01:39:45.363Z,6.80
2019-03-16T01:42:14.381Z,6.80
2019-03-16T01:44:43.319Z,6.80
2019-03-16T01:47:12.366Z,6.70
2019-03-16T01:49:41.337Z,6.70
2019-03-16T01:52:10.419Z,6.70
2019-03-16T01:54:39.530Z,6.70
2019-03-16T01:57:08.599Z,6.70
2019-03-16T01:59:37.640Z,6.70
2019-03-16T02:02:06.833Z,6.70
2019-03-16T02:04:36.594Z,6.70
2019-03-16T02:07:08.623Z,6.70
2019-03-16T02:09:37.519Z,6.70
2019-03-16T02:12:06.611Z,6.70
2019-03-16T02:14:35.675Z,6.70
2019-03-16T02:17:04.780Z,6.70
2019-03-16T02:19:36.001Z,6.70
2019-03-16T02:22:04.658Z,6.70
2019-03-16T02:24:33.829Z,6.70
2019-03-16T02:27:02.889Z,6.80
2019-03-16T02:29:31.855Z,6.70
2019-03-16T02:32:00.935Z,6.70
2019-03-16T02:34:30.001Z,6.70
2019-03-16T02:36:58.928Z,6.70
2019-03-16T02:39:27.847Z,6.70
2019-03-16T02:41:56.841Z,6.60
2019-03-16T02:44:25.872Z,6.70
2019-03-16T02:46:55.015Z,6.70
2019-03-16T02:49:24.111Z,6.60
2019-03-16T02:51:53.262Z,6.60
2019-03-16T02:54:22.296Z,6.60
2019-03-16T02:56:51.292Z,6.60
2019-03-16T02:59:20.293Z,6.60
2019-03-16T03:01:49.619Z,6.70
2019-03-16T03:04:18.576Z,6.60
2019-03-16T03:06:47.527Z,6.70
2019-03-16T03:09:16.526Z,6.70
2019-03-16T03:11:45.511Z,6.70
2019-03-16T03:14:14.456Z,6.60
2019-03-16T03:16:43.506Z,6.60
2019-03-16T03:19:12.660Z,6.70
2019-03-16T03:21:41.697Z,6.70
2019-03-16T03:24:10.786Z,6.70
2019-03-16T03:26:39.731Z,6.70
2019-03-16T03:29:08.863Z,6.70
2019-03-16T03:31:37.859Z,6.60
2019-03-16T03:34:06.856Z,6.70
2019-03-16T03:36:35.890Z,6.70
2019-03-16T03:39:07.003Z,6.60
2019-03-16T03:41:36.469Z,6.60
2019-03-16T03:44:05.603Z,6.60
2019-03-16T03:46:34.579Z,6.50
2019-03-16T03:49:03.772Z,6.60
2019-03-16T03:51:33.777Z,6.50
2019-03-16T03:54:02.828Z,6.50
2019-03-16T03:56:31.890Z,6.40
2019-03-16T03:59:00.887Z,6.40
2019-03-16T04:01:30.253Z,6.40
2019-03-16T04:04:14.034Z,6.40
2019-03-16T04:06:30.473Z,6.40
2019-03-16T04:09:00.101Z,6.30
2019-03-16T04:11:30.077Z,6.30
2019-03-16T04:13:59.101Z,6.30
2019-03-16T04:16:28.133Z,6.30
2019-03-16T04:18:57.376Z,6.20
2019-03-16T04:21:26.324Z,6.20
2019-03-16T04:23:55.352Z,6.20
2019-03-16T04:26:24.332Z,6.20
2019-03-16T04:28:54.636Z,6.20
2019-03-16T04:31:23.680Z,6.20
2019-03-16T04:33:53.598Z,6.20
2019-03-16T04:36:23.191Z,6.20
2019-03-16T04:38:54.658Z,6.20
2019-03-16T04:41:23.749Z,6.20
2019-03-16T04:43:52.829Z,6.20
2019-03-16T04:46:22.168Z,6.20
2019-03-16T04:48:51.568Z,6.30
2019-03-16T04:51:20.878Z,6.30
2019-03-16T04:53:50.576Z,6.30
2019-03-16T04:56:19.661Z,6.30
2019-03-16T04:58:51.778Z,6.30
2019-03-16T05:01:21.123Z,6.30
2019-03-16T05:03:50.141Z,6.30
2019-03-16T05:06:19.209Z,6.30
2019-03-16T05:08:48.106Z,6.30
2019-03-16T05:11:17.065Z,6.40
2019-03-16T05:13:45.943Z,6.40
2019-03-16T05:16:16.135Z,6.40
2019-03-16T05:18:45.147Z,6.40
2019-03-16T05:21:14.247Z,6.30
2019-03-16T05:23:43.216Z,6.40
2019-03-16T05:26:12.235Z,6.30
2019-03-16T05:28:41.172Z,6.40
2019-03-16T05:31:10.278Z,6.30
2019-03-16T05:33:39.271Z,6.30
2019-03-16T05:36:08.277Z,6.30
2019-03-16T05:38:37.243Z,6.30
2019-03-16T05:41:06.350Z,6.30
2019-03-16T05:43:35.387Z,6.30
2019-03-16T05:46:04.385Z,6.40
2019-03-16T05:48:33.451Z,6.40
2019-03-16T05:51:02.524Z,6.40
2019-03-16T05:53:31.702Z,6.40
2019-03-16T05:56:00.739Z,6.40
2019-03-16T05:58:29.755Z,6.40
2019-03-16T06:00:58.922Z,6.40
2019-03-16T06:03:27.962Z,6.50
2019-03-16T06:05:57.102Z,6.50
2019-03-16T06:08:26.156Z,6.40
2019-03-16T06:10:55.291Z,6.40
2019-03-16T06:13:24.242Z,6.50
2019-03-16T06:15:53.221Z,6.50
2019-03-16T06:18:22.229Z,6.50
2019-03-16T06:20:51.322Z,6.50
2019-03-16T06:23:20.355Z,6.60
2019-03-16T06:25:49.389Z,6.50
2019-03-16T06:28:18.508Z,6.50
2019-03-16T06:30:47.479Z,6.50
2019-03-16T06:33:16.451Z,6.50
2019-03-16T06:35:48.304Z,6.50
2019-03-16T06:38:17.276Z,6.50
2019-03-16T06:40:46.346Z,6.50
2019-03-16T06:43:15.309Z,6.50
2019-03-16T06:45:44.413Z,6.60
2019-03-16T06:48:13.364Z,6.60
2019-03-16T06:50:42.519Z,6.60
2019-03-16T06:53:11.548Z,6.60
2019-03-16T06:55:40.480Z,6.60
2019-03-16T06:58:09.547Z,6.70
2019-03-16T07:00:38.567Z,6.70
2019-03-16T07:03:07.634Z,6.70
2019-03-16T07:05:38.822Z,6.80
2019-03-16T07:08:07.552Z,6.70
2019-03-16T07:10:36.665Z,6.80
2019-03-16T07:13:05.719Z,6.80
2019-03-16T07:15:34.895Z,6.80
2019-03-16T07:18:03.953Z,6.80
2019-03-16T07:20:33.044Z,6.90
2019-03-16T07:23:03.222Z,6.90
2019-03-16T07:25:32.308Z,7.00
2019-03-16T07:28:01.354Z,7.00
2019-03-16T07:30:30.448Z,7.00
2019-03-16T07:32:59.394Z,7.00
2019-03-16T07:35:28.536Z,7.00
2019-03-16T07:37:57.532Z,7.00
2019-03-16T07:40:26.527Z,6.90
2019-03-16T07:42:55.581Z,6.90
2019-03-16T07:45:24.715Z,6.90
2019-03-16T07:47:53.610Z,6.80
2019-03-16T07:50:22.602Z,6.70
2019-03-16T07:52:51.635Z,6.60
2019-03-16T07:55:20.652Z,6.50
2019-03-16T07:57:49.618Z,6.40
2019-03-16T08:00:18.761Z,6.40
2019-03-16T08:02:47.760Z,6.40
2019-03-16T08:05:19.226Z,6.40
2019-03-16T08:07:47.458Z,6.40
2019-03-16T08:10:16.544Z,6.40
2019-03-16T08:12:45.528Z,6.30
2019-03-16T08:15:14.862Z,6.30
2019-03-16T08:17:44.114Z,6.20
2019-03-16T08:20:13.507Z,6.20
2019-03-16T08:22:42.408Z,6.10
2019-03-16T08:25:15.381Z,6.10
2019-03-16T08:27:53.890Z,6.10
2019-03-16T08:30:15.274Z,6.10
2019-03-16T08:32:47.786Z,6.10
2019-03-16T08:35:18.314Z,6.00
2019-03-16T08:37:47.343Z,5.90
2019-03-16T08:40:16.591Z,5.80
2019-03-16T08:42:45.711Z,5.80
2019-03-16T08:45:25.138Z,5.80
2019-03-16T08:47:54.288Z,5.80
2019-03-16T08:50:23.659Z,5.80
2019-03-16T08:52:54.934Z,5.80
2019-03-16T08:55:23.972Z,5.70
2019-03-16T08:58:05.318Z,5.70
2019-03-16T09:00:23.892Z,5.70
2019-03-16T09:02:52.907Z,5.60
2019-03-16T09:05:23.456Z,5.60
2019-03-16T09:07:55.400Z,5.60
2019-03-16T09:10:24.603Z,5.70
2019-03-16T09:12:55.530Z,5.60
2019-03-16T09:15:26.336Z,5.60
2019-03-16T09:17:56.081Z,5.60
2019-03-16T09:20:25.141Z,5.60
2019-03-16T09:22:54.308Z,5.60
2019-03-16T09:25:25.050Z,5.50
2019-03-16T09:27:54.151Z,5.60
2019-03-16T09:30:24.617Z,5.60
2019-03-16T09:32:53.913Z,5.70
2019-03-16T09:35:23.729Z,5.70
2019-03-16T09:37:53.251Z,5.70
2019-03-16T09:40:22.169Z,5.60
2019-03-16T09:42:51.206Z,5.50
2019-03-16T09:45:20.815Z,5.60
2019-03-16T09:47:49.951Z,5.70
2019-03-16T09:50:19.062Z,5.70
2019-03-16T09:52:48.078Z,5.70
2019-03-16T09:55:17.235Z,5.70
2019-03-16T09:57:46.144Z,5.70
2019-03-16T10:00:15.218Z,5.60
2019-03-16T10:02:44.255Z,5.60
2019-03-16T10:05:13.483Z,5.60
2019-03-16T10:07:42.612Z,5.60
2019-03-16T10:10:11.729Z,5.60
2019-03-16T10:12:40.699Z,5.60
2019-03-16T10:15:10.183Z,5.60
2019-03-16T10:17:39.173Z,5.60
2019-03-16T10:20:08.375Z,5.60
2019-03-16T10:22:37.550Z,5.60
2019-03-16T10:25:06.756Z,5.60
2019-03-16T10:27:35.741Z,5.60
2019-03-16T10:30:05.848Z,5.60
2019-03-16T10:32:34.880Z,5.50
2019-03-16T10:35:04.024Z,5.50
2019-03-16T10:37:35.278Z,5.50
2019-03-16T10:40:05.012Z,5.40
2019-03-16T10:42:35.876Z,5.50
2019-03-16T10:45:05.601Z,5.40
2019-03-16T10:47:34.674Z,5.50
2019-03-16T10:50:04.741Z,5.50
2019-03-16T10:52:36.699Z,5.50
2019-03-16T10:55:06.386Z,5.40
2019-03-16T10:57:35.598Z,5.40
2019-03-16T11:00:05.382Z,5.30
2019-03-16T11:02:34.389Z,5.30
2019-03-16T11:05:03.488Z,5.30
2019-03-16T11:07:32.535Z,5.30
2019-03-16T11:10:01.674Z,5.30
2019-03-16T11:12:30.684Z,5.20
2019-03-16T11:14:59.683Z,5.20
2019-03-16T11:17:28.771Z,5.20
2019-03-16T11:19:57.835Z,5.20
2019-03-16T11:22:26.944Z,5.20
2019-03-16T11:24:55.991Z,5.20
2019-03-16T11:27:24.992Z,5.20
2019-03-16T11:29:54.003Z,5.30
2019-03-16T11:32:23.200Z,5.30
2019-03-16T11:34:52.265Z,5.30
2019-03-16T11:37:21.242Z,5.40
2019-03-16T11:39:50.181Z,5.30
2019-03-16T11:42:19.317Z,5.30
2019-03-16T11:44:48.420Z,5.30
2019-03-16T11:47:17.444Z,5.30
2019-03-16T11:49:46.770Z,5.40
2019-03-16T11:52:15.643Z,5.40
2019-03-16T11:54:44.607Z,5.50
2019-03-16T11:57:14.055Z,5.60
2019-03-16T11:59:43.095Z,5.60
2019-03-16T12:02:12.218Z,5.70
2019-03-16T12:04:41.388Z,5.80
2019-03-16T12:07:10.551Z,5.90
2019-03-16T12:09:39.649Z,5.90
2019-03-16T12:12:08.876Z,6.00
2019-03-16T12:14:40.273Z,6.10
2019-03-16T12:17:09.211Z,6.20
2019-03-16T12:19:38.299Z,6.30
2019-03-16T12:22:07.333Z,6.30
2019-03-16T12:24:36.396Z,6.40
2019-03-16T12:27:05.495Z,6.50
2019-03-16T12:29:34.601Z,6.60
2019-03-16T12:32:03.633Z,6.60
2019-03-16T12:34:32.684Z,6.70
2019-03-16T12:37:01.680Z,6.80
2019-03-16T12:39:30.732Z,6.90
2019-03-16T12:41:59.792Z,7.00
2019-03-16T12:44:28.971Z,7.00
2019-03-16T12:46:58.051Z,7.10
2019-03-16T12:49:27.214Z,7.10
2019-03-16T12:51:56.354Z,7.20
2019-03-16T12:54:25.448Z,7.20
2019-03-16T12:56:54.408Z,7.30
2019-03-16T12:59:24.344Z,7.30
2019-03-16T13:01:53.525Z,7.30
2019-03-16T13:04:22.948Z,7.40
2019-03-16T13:06:52.028Z,7.40
2019-03-16T13:09:21.462Z,7.40
2019-03-16T13:11:50.950Z,7.50
2019-03-16T13:14:19.958Z,7.50
2019-03-16T13:16:49.359Z,7.60
2019-03-16T13:19:18.523Z,7.60
2019-03-16T13:21:47.914Z,7.70
2019-03-16T13:24:17.141Z,7.70
2019-03-16T13:26:46.835Z,7.80
2019-03-16T13:29:16.033Z,7.80
2019-03-16T13:31:45.148Z,7.90
2019-03-16T13:34:14.219Z,8.00
2019-03-16T13:36:43.568Z,8.10
2019-03-16T13:39:12.698Z,8.20
2019-03-16T13:41:41.717Z,8.30
2019-03-16T13:44:10.802Z,8.40
2019-03-16T13:46:40.338Z,8.50
2019-03-16T13:49:09.403Z,8.70
2019-03-16T13:51:38.611Z,8.80
2019-03-16T13:54:07.743Z,8.90
2019-03-16T13:56:37.559Z,8.90
2019-03-16T13:59:06.599Z,9.00
2019-03-16T14:01:35.829Z,9.10
2019-03-16T14:04:05.131Z,9.10
2019-03-16T14:06:34.157Z,9.20
2019-03-16T14:09:04.021Z,9.20
2019-03-16T14:11:33.051Z,9.20
2019-03-16T14:14:02.106Z,9.30
2019-03-16T14:16:31.320Z,9.30
2019-03-16T14:19:02.204Z,9.30
2019-03-16T14:21:33.162Z,9.30
2019-03-16T14:24:02.343Z,9.30
2019-03-16T14:26:32.062Z,9.40
2019-03-16T14:29:01.913Z,9.40
2019-03-16T14:31:32.165Z,9.40
2019-03-16T14:34:04.239Z,9.40
2019-03-16T14:36:35.627Z,9.40
2019-03-16T14:39:08.457Z,9.40
2019-03-16T14:41:37.850Z,9.50
2019-03-16T14:44:07.075Z,9.50
2019-03-16T14:46:36.513Z,9.50
2019-03-16T14:49:08.615Z,9.50
2019-03-16T14:51:37.680Z,9.50
2019-03-16T14:54:06.765Z,9.60
2019-03-16T14:56:35.749Z,9.60
2019-03-16T14:59:04.770Z,9.60
2019-03-16T15:01:34.070Z,9.60
2019-03-16T15:04:03.127Z,9.60
2019-03-16T15:06:32.197Z,9.60
2019-03-16T15:09:01.488Z,9.60
2019-03-16T15:11:30.548Z,9.60
2019-03-16T15:13:59.632Z,9.60
2019-03-16T15:16:28.840Z,9.70
2019-03-16T15:18:57.928Z,9.70
2019-03-16T15:21:27.555Z,9.70
2019-03-16T15:23:56.436Z,9.70
2019-03-16T15:26:25.632Z,9.70
2019-03-16T15:28:55.418Z,9.70
2019-03-16T15:31:24.569Z,9.80
2019-03-16T15:33:53.624Z,9.80
2019-03-16T15:36:22.610Z,9.90
2019-03-16T15:38:51.585Z,9.90
2019-03-16T15:41:20.926Z,9.90
2019-03-16T15:43:49.840Z,9.90
2019-03-16T15:46:18.853Z,9.90
2019-03-16T15:48:48.031Z,9.90
2019-03-16T15:51:16.956Z,9.90
2019-03-16T15:53:46.011Z,9.90
2019-03-16T15:56:15.015Z,9.80
2019-03-16T15:58:43.988Z,9.80
2019-03-16T16:01:13.132Z,9.70
2019-03-16T16:03:42.152Z,9.70
2019-03-16T16:06:11.289Z,9.60
2019-03-16T16:08:40.383Z,9.70
2019-03-16T16:11:09.428Z,9.60
2019-03-16T16:13:39.046Z,9.60
2019-03-16T16:16:11.080Z,9.60
2019-03-16T16:18:40.132Z,9.60
2019-03-16T16:21:09.202Z,9.60
2019-03-16T16:23:38.270Z,9.60
2019-03-16T16:26:07.413Z,9.60
2019-03-16T16:28:36.532Z,9.60
2019-03-16T16:31:16.173Z,9.60
2019-03-16T16:33:39.010Z,9.50
2019-03-16T16:36:08.626Z,9.50
2019-03-16T16:38:37.667Z,9.50
2019-03-16T16:41:06.864Z,9.60
2019-03-16T16:43:36.159Z,9.60
2019-03-16T16:46:05.309Z,9.60
2019-03-16T16:48:34.883Z,9.70
2019-03-16T16:51:04.029Z,9.70
2019-03-16T16:53:33.059Z,9.70
2019-03-16T16:56:02.132Z,9.70
2019-03-16T16:58:31.405Z,9.80
2019-03-16T17:01:00.572Z,9.90
2019-03-16T17:03:30.575Z,9.90
2019-03-16T17:06:00.142Z,9.90
2019-03-16T17:08:29.966Z,9.90
2019-03-16T17:10:59.078Z,9.90
2019-03-16T17:13:28.417Z,9.90
2019-03-16T17:15:58.231Z,10.00
2019-03-16T17:18:27.160Z,10.00
2019-03-16T17:20:57.039Z,10.00
2019-03-16T17:23:27.190Z,10.00
2019-03-16T17:25:56.252Z,10.10
2019-03-16T17:28:25.259Z,10.10
2019-03-16T17:30:55.944Z,10.10
2019-03-16T17:33:25.138Z,10.10
2019-03-16T17:35:54.322Z,10.10
2019-03-16T17:38:23.423Z,10.10
2019-03-16T17:40:53.148Z,10.10
2019-03-16T17:43:22.171Z,10.10
2019-03-16T17:45:53.230Z,10.10
2019-03-16T17:48:22.505Z,10.10
2019-03-16T17:50:56.497Z,10.10
2019-03-16T17:53:25.526Z,10.10
2019-03-16T17:55:54.673Z,10.20
2019-03-16T17:58:23.796Z,10.20
2019-03-16T18:00:52.995Z,10.20
2019-03-16T18:03:22.045Z,10.20
2019-03-16T18:05:51.060Z,10.20
2019-03-16T18:08:22.315Z,10.30
2019-03-16T18:10:51.414Z,10.30
2019-03-16T18:13:20.441Z,10.30
2019-03-16T18:15:49.648Z,10.30
2019-03-16T18:18:18.812Z,10.30
2019-03-16T18:20:47.816Z,10.30
2019-03-16T18:23:17.024Z,10.30
2019-03-16T18:25:46.819Z,10.30
2019-03-16T18:28:16.385Z,10.30
2019-03-16T18:30:45.372Z,10.30
2019-03-16T18:33:14.504Z,10.30
2019-03-16T18:35:43.611Z,10.30
2019-03-16T18:38:12.751Z,10.30
2019-03-16T18:40:41.854Z,10.30
2019-03-16T18:43:10.756Z,10.30
2019-03-16T18:45:39.731Z,10.30
2019-03-16T18:48:08.732Z,10.40
2019-03-16T18:50:37.803Z,10.40
2019-03-16T18:53:06.824Z,10.40
2019-03-16T18:55:35.854Z,10.40
2019-03-16T18:58:05.034Z,10.40
2019-03-16T19:00:34.121Z,10.40
2019-03-16T19:03:03.610Z,10.40
2019-03-16T19:05:32.743Z,10.40
2019-03-16T19:08:01.735Z,10.50
2019-03-16T19:10:30.803Z,10.40
2019-03-16T19:13:01.011Z,10.40
2019-03-16T19:15:30.116Z,10.40
2019-03-16T19:17:59.552Z,10.40
2019-03-16T19:20:28.686Z,10.40
2019-03-16T19:22:57.966Z,10.40
2019-03-16T19:25:27.089Z,10.40
2019-03-16T19:27:56.096Z,10.40
2019-03-16T19:30:26.762Z,10.40
2019-03-16T19:32:55.924Z,10.40
2019-03-16T19:35:26.400Z,10.30
2019-03-16T19:37:59.159Z,10.30
2019-03-16T19:40:28.700Z,10.30
2019-03-16T19:42:57.782Z,10.30
2019-03-16T19:45:27.021Z,10.30
2019-03-16T19:47:56.111Z,10.30
2019-03-16T19:50:25.047Z,10.40
2019-03-16T19:52:54.120Z,10.40
2019-03-16T19:55:23.172Z,10.30
2019-03-16T19:57:52.315Z,10.40
2019-03-16T20:00:21.672Z,10.30
2019-03-16T20:02:51.797Z,10.30
2019-03-16T20:05:21.047Z,10.30
2019-03-16T20:07:50.186Z,10.40
2019-03-16T20:10:20.793Z,10.40
2019-03-16T20:12:52.882Z,10.40
2019-03-16T20:15:21.958Z,10.50
2019-03-16T20:17:51.162Z,10.40
2019-03-16T20:20:20.326Z,10.40
2019-03-16T20:22:49.747Z,10.40
2019-03-16T20:25:18.771Z,10.40
2019-03-16T20:27:48.899Z,10.40
2019-03-16T20:30:26.593Z,10.40
2019-03-16T20:33:02.616Z,10.40
2019-03-16T20:35:19.898Z,10.40
2019-03-16T20:37:48.978Z,10.40
2019-03-16T20:40:18.079Z,10.40
2019-03-16T20:42:58.822Z,10.40
2019-03-16T20:45:29.000Z,10.40
2019-03-16T20:47:58.195Z,10.40
2019-03-16T20:50:27.463Z,10.30
2019-03-16T20:52:56.700Z,10.30
2019-03-16T20:55:25.910Z,10.30
2019-03-16T20:57:55.053Z,10.30
2019-03-16T21:00:24.195Z,10.30
2019-03-16T21:02:53.243Z,10.30
2019-03-16T21:05:22.284Z,10.30
2019-03-16T21:07:51.460Z,10.30
2019-03-16T21:10:20.654Z,10.30
2019-03-16T21:12:49.868Z,10.30
2019-03-16T21:15:19.052Z,10.30
2019-03-16T21:17:48.123Z,10.30
2019-03-16T21:20:17.141Z,10.20
2019-03-16T21:22:46.476Z,10.30
2019-03-16T21:25:15.767Z,10.20
2019-03-16T21:27:44.925Z,10.20
2019-03-16T21:30:15.212Z,10.20
2019-03-16T21:32:44.477Z,10.20
2019-03-16T21:35:13.945Z,10.20
2019-03-16T21:37:43.068Z,10.20
2019-03-16T21:40:12.320Z,10.20
2019-03-16T21:42:41.482Z,10.20
2019-03-16T21:45:10.674Z,10.20
2019-03-16T21:47:39.827Z,10.20
2019-03-16T21:50:09.487Z,10.20
2019-03-16T21:52:38.641Z,10.20
2019-03-16T21:55:08.190Z,10.20
2019-03-16T21:57:37.242Z,10.20
2019-03-16T22:00:08.264Z,10.20
2019-03-16T22:02:37.254Z,10.20
2019-03-16T22:05:06.635Z,10.20
2019-03-16T22:07:35.799Z,10.20
2019-03-16T22:10:05.539Z,10.20
2019-03-16T22:12:34.526Z,10.30
2019-03-16T22:15:03.678Z,10.30
2019-03-16T22:17:32.669Z,10.30
2019-03-16T22:20:01.748Z,10.30
2019-03-16T22:22:30.815Z,10.30
2019-03-16T22:24:59.855Z,10.30
2019-03-16T22:27:28.844Z,10.40
2019-03-16T22:29:57.837Z,10.30
2019-03-16T22:32:26.923Z,10.40
2019-03-16T22:34:56.027Z,10.40
2019-03-16T22:37:26.508Z,10.40
2019-03-16T22:39:56.231Z,10.40
2019-03-16T22:42:25.317Z,10.40
2019-03-16T22:44:54.471Z,10.50
2019-03-16T22:47:23.602Z,10.50
2019-03-16T22:49:52.656Z,10.50
2019-03-16T22:52:21.913Z,10.50
2019-03-16T22:54:51.488Z,10.50
2019-03-16T22:57:20.597Z,10.50
2019-03-16T22:59:49.923Z,10.60
2019-03-16T23:02:19.365Z,10.60
2019-03-16T23:04:48.763Z,10.60
2019-03-16T23:07:19.216Z,10.60
2019-03-16T23:09:48.404Z,10.60
2019-03-16T23:12:17.551Z,10.60
2019-03-16T23:14:46.728Z,10.60
2019-03-16T23:17:16.193Z,10.60
2019-03-16T23:19:45.162Z,10.70
2019-03-16T23:22:14.443Z,10.70
2019-03-16T23:24:43.394Z,10.60
2019-03-16T23:27:12.428Z,10.60
2019-03-16T23:29:41.512Z,10.60
2019-03-16T23:32:10.623Z,10.60
2019-03-16T23:34:39.660Z,10.60
2019-03-16T23:37:08.855Z,10.60
2019-03-16T23:39:38.138Z,10.60
2019-03-16T23:42:07.442Z,10.60
2019-03-16T23:44:36.567Z,10.70
2019-03-16T23:47:05.989Z,10.70
2019-03-16T23:49:35.207Z,10.70
2019-03-16T23:52:05.507Z,10.60
2019-03-16T23:54:34.567Z,10.70
2019-03-16T23:57:04.376Z,10.70
2019-03-16T23:59:33.515Z,10.70
